Chicago, IL (60290)

1:44 AM CST on February 09, 2016 (GMT -0600)
West Loop | | Change Station
CLOSE
Current Station
Personal Weather Station
Location: Chicago, IL
Elevation: 571 ft
Nearby Weather Stations
Active Advisory: Special Statement Active Notice: Local Storm Report

Elev 571 ft 41.88 °N, 87.64 °W | Updated 1 minute ago

Snow
Snow
21.7 °F
Feels Like 15 °F
N
4.7
Wind Variable Wind from SW

Today
High -- | Low -- °F
--% Chance of Precip.
Yesterday
High -- | Low -- °F
Precip. -- in
Pressure 29.73 in
Visibility 3.0 miles
Clouds Scattered Clouds 1200 ft
Overcast 3300 ft
Windchill 15 °F
Dew Point 17 °F
Humidity 81%
Rainfall 0.00 in
Snow Depth Not available.
6:54 AM 5:15 PM
New Moon, 1% visible
SPECI KMDW 090738Z 29011KT 3SM -SN BR SCT012 OVC033 M06/M09 A2973 RMK AO2 P0000 T10611094
Pressure 29.73 in
Visibility 3.0 miles
Clouds Scattered Clouds 1200 ft
Overcast 3300 ft
Windchill 15 °F
Dew Point 17 °F
Humidity 81%
Rainfall 0.00 in
Snow Depth Not available.
6:54 AM 5:15 PM
New Moon, 1% visible
SPECI KMDW 090738Z 29011KT 3SM -SN BR SCT012 OVC033 M06/M09 A2973 RMK AO2 P0000 T10611094

10-Day Weather Forecast

Almanac

Astronomy

Feb. 09, 2016 Rise Set
Actual Time
Civil Twilight
Nautical Twilight
Astronomical Twilight
Moon
Length of Visible Light
Length of Day
Tomorrow will be .
, % of the Moon is Illuminated

Today's Extremes

State Highs State Lows

Community

WunderPhotos

Upload Photos

1,891,571 photos uploaded!

WunderBlog® & News

Nearby

Air Quality

  Air Quality AQ Index Pollutant
Not available.

Snow Depth

Station Depth Elevation

Earthquake Activity

City Distance Mag. Time & Date
Minimum magnitude displayed is 2.5.

Coastal Water Temperatures

Place Temperature

Stations

Nearby Weather Stations

Station Location Temp. Windchill Dew Point Humidity Wind Precip. Elev Updated Type
                   

Watches & Warnings

Special Statement
Issued: 4:07 PM EST Feb. 8, 2016 – National Weather Service

... Light snow likely tonight into early Tuesday...

Light snow is likely tonight into Tuesday morning with some minor
accumulations of an inch or so possible. Light snow will likely
have an adverse impact on the Tuesday morning rush hour.


307 PM CST Mon Feb 8 2016 /407 PM EST Mon Feb 8 2016/

... Light snow likely tonight into early Tuesday...

Light snow is likely tonight into Tuesday morning with some minor
accumulations of an inch or so possible. Light snow will likely
have an adverse impact on the Tuesday morning rush hour.